createdAt,value
2022-12-31T00:05:05.818Z,2.24
2022-12-31T00:15:11.971Z,2.73
2022-12-31T00:25:17.388Z,3.10
2022-12-31T00:35:23.594Z,3.53
2022-12-31T00:55:36.512Z,4.43
2022-12-31T01:05:43.589Z,4.62
2022-12-31T01:15:51.019Z,4.83
2022-12-31T01:25:56.996Z,5.11
2022-12-31T01:36:04.798Z,5.24
2022-12-31T01:46:14.227Z,5.32
2022-12-31T01:56:23.596Z,5.42
2022-12-31T02:06:32.592Z,5.55
2022-12-31T02:16:42.703Z,5.70
2022-12-31T02:26:51.249Z,5.84
2022-12-31T02:37:02.032Z,5.96
2022-12-31T02:47:11.039Z,6.04
2022-12-31T02:57:21.755Z,6.04
2022-12-31T03:07:31.834Z,6.05
2022-12-31T03:17:38.872Z,6.14
2022-12-31T03:27:46.588Z,6.21
2022-12-31T03:37:54.893Z,6.29
2022-12-31T03:48:02.043Z,6.30
2022-12-31T03:58:09.294Z,6.22
2022-12-31T04:08:16.811Z,6.19
2022-12-31T04:18:24.392Z,6.27
2022-12-31T04:28:31.333Z,6.34
2022-12-31T04:38:38.313Z,6.39
2022-12-31T04:48:46.012Z,6.44
2022-12-31T04:58:53.334Z,6.41
2022-12-31T05:09:00.687Z,6.37
2022-12-31T05:19:09.712Z,6.37
2022-12-31T05:29:16.864Z,6.41
2022-12-31T05:39:23.843Z,6.46
2022-12-31T05:49:31.033Z,6.48
2022-12-31T05:59:38.571Z,6.53
2022-12-31T06:09:45.831Z,6.58
2022-12-31T06:19:52.880Z,6.71
2022-12-31T06:30:00.105Z,6.85
2022-12-31T06:40:07.384Z,6.94
2022-12-31T06:50:14.669Z,7.02
2022-12-31T07:00:24.759Z,7.00
2022-12-31T07:10:31.369Z,6.95
2022-12-31T07:20:37.787Z,7.01
2022-12-31T07:30:43.676Z,7.13
2022-12-31T07:40:52.811Z,7.22
2022-12-31T07:51:00.942Z,7.27
2022-12-31T08:01:10.924Z,7.30
2022-12-31T08:11:15.850Z,7.58
2022-12-31T08:21:26.136Z,7.77
2022-12-31T08:31:36.500Z,8.56
2022-12-31T08:41:47.856Z,8.79
2022-12-31T08:51:55.992Z,8.41
2022-12-31T09:02:13.069Z,8.65
2022-12-31T09:12:23.671Z,8.95
2022-12-31T09:22:31.785Z,9.01
2022-12-31T09:32:38.174Z,9.05
2022-12-31T09:42:58.838Z,9.07
2022-12-31T09:53:08.505Z,9.32
2022-12-31T10:03:36.126Z,9.44
2022-12-31T10:13:44.806Z,9.62
2022-12-31T10:24:04.929Z,9.68
2022-12-31T10:34:13.869Z,9.79
2022-12-31T10:44:49.969Z,9.93
2022-12-31T10:55:24.422Z,10.08
2022-12-31T11:05:50.902Z,10.09
2022-12-31T11:16:20.722Z,10.00
2022-12-31T11:26:28.116Z,10.05
2022-12-31T11:36:37.329Z,10.18
2022-12-31T11:46:48.501Z,10.27
2022-12-31T11:56:59.900Z,10.41
2022-12-31T12:07:14.627Z,10.63
2022-12-31T12:17:31.952Z,10.71
2022-12-31T12:27:39.320Z,10.75
2022-12-31T12:37:45.494Z,10.71
2022-12-31T12:47:59.839Z,10.76
2022-12-31T12:58:04.953Z,10.83
2022-12-31T13:08:10.748Z,10.85
2022-12-31T13:18:29.721Z,10.91
2022-12-31T13:28:42.584Z,10.93
2022-12-31T13:38:48.433Z,10.85
2022-12-31T13:48:57.707Z,10.74
2022-12-31T13:59:02.321Z,10.70
2022-12-31T14:09:13.604Z,10.66
2022-12-31T14:19:20.043Z,10.57
2022-12-31T14:29:28.713Z,10.53
2022-12-31T14:39:38.911Z,10.46
2022-12-31T14:49:45.895Z,10.41
2022-12-31T14:59:54.062Z,10.35
2022-12-31T15:10:04.044Z,10.22
2022-12-31T15:20:33.503Z,10.24
2022-12-31T15:30:39.414Z,10.26
2022-12-31T15:50:57.806Z,10.27
2022-12-31T16:01:10.216Z,10.23
2022-12-31T16:11:18.746Z,10.26
2022-12-31T16:21:32.111Z,10.33
2022-12-31T16:31:40.815Z,10.37
2022-12-31T16:41:48.856Z,10.35
2022-12-31T16:52:02.415Z,10.46
2022-12-31T17:02:14.163Z,10.51
2022-12-31T17:12:22.008Z,10.58
2022-12-31T17:22:36.770Z,10.60
2022-12-31T17:32:48.983Z,10.65
2022-12-31T17:42:56.805Z,10.71
2022-12-31T17:53:12.715Z,10.73
2022-12-31T18:03:19.863Z,10.71
2022-12-31T18:13:28.512Z,10.75
2022-12-31T18:23:40.419Z,10.84
2022-12-31T18:33:48.145Z,10.90
2022-12-31T18:43:56.079Z,10.91
2022-12-31T18:54:04.799Z,10.89
2022-12-31T19:04:12.768Z,10.94
2022-12-31T19:14:24.340Z,11.03
2022-12-31T19:24:30.458Z,11.03
2022-12-31T19:34:37.524Z,10.99
2022-12-31T19:44:44.991Z,10.96
2022-12-31T19:54:52.436Z,10.94
2022-12-31T20:04:58.553Z,10.88
2022-12-31T20:15:04.838Z,10.84
2022-12-31T20:25:12.485Z,10.81
2022-12-31T20:35:18.323Z,10.77
2022-12-31T20:45:25.478Z,10.73
2022-12-31T20:55:32.764Z,10.72
2022-12-31T21:05:39.932Z,10.62
2022-12-31T21:15:50.208Z,10.56
2022-12-31T21:25:57.117Z,10.63
2022-12-31T21:36:05.085Z,10.69
2022-12-31T21:46:12.393Z,10.73
2022-12-31T21:56:18.905Z,10.70
2022-12-31T22:06:26.900Z,10.75
2022-12-31T22:16:34.125Z,10.84
2022-12-31T22:26:44.775Z,10.90
2022-12-31T22:36:54.057Z,10.93
2022-12-31T22:47:01.679Z,11.01
2022-12-31T22:57:09.746Z,11.19
2022-12-31T23:07:18.750Z,11.27
2022-12-31T23:17:45.746Z,11.26
2022-12-31T23:27:53.023Z,11.25
2022-12-31T23:38:00.416Z,11.29
2022-12-31T23:48:06.863Z,11.24
2022-12-31T23:58:13.997Z,11.13
